createdAt,value
2023-03-10T00:00:39.397Z,4.50
2023-03-10T00:03:06.676Z,4.50
2023-03-10T00:05:33.865Z,4.50
2023-03-10T00:08:00.505Z,4.30
2023-03-10T00:10:27.271Z,4.40
2023-03-10T00:12:54.000Z,4.40
2023-03-10T00:15:20.688Z,4.40
2023-03-10T00:17:50.088Z,4.40
2023-03-10T00:20:17.082Z,4.30
2023-03-10T00:22:43.740Z,4.30
2023-03-10T00:25:10.979Z,6.90
2023-03-10T00:27:37.597Z,4.30
2023-03-10T00:30:04.907Z,4.20
2023-03-10T00:32:31.581Z,4.10
2023-03-10T00:34:58.320Z,4.00
2023-03-10T00:37:24.946Z,4.10
2023-03-10T00:39:52.844Z,4.10
2023-03-10T00:42:20.179Z,4.10
2023-03-10T00:44:47.090Z,4.10
2023-03-10T00:47:13.917Z,3.90
2023-03-10T00:49:40.521Z,4.00
2023-03-10T00:52:07.180Z,4.40
2023-03-10T00:54:33.805Z,4.10
2023-03-10T00:57:00.422Z,3.90
2023-03-10T00:59:28.330Z,3.90
2023-03-10T01:01:56.232Z,3.80
2023-03-10T01:04:23.034Z,4.00
2023-03-10T01:06:49.823Z,3.90
2023-03-10T01:09:16.738Z,3.70
2023-03-10T01:11:43.530Z,3.90
2023-03-10T01:14:17.138Z,3.90
2023-03-10T01:16:44.192Z,3.60
2023-03-10T01:19:11.019Z,3.70
2023-03-10T01:21:38.907Z,3.70
2023-03-10T01:24:07.040Z,3.80
2023-03-10T01:26:34.004Z,3.80
2023-03-10T01:29:00.706Z,3.60
2023-03-10T01:31:27.424Z,3.60
2023-03-10T01:33:54.920Z,3.50
2023-03-10T01:36:25.725Z,3.60
2023-03-10T01:38:54.119Z,3.80
2023-03-10T01:41:21.302Z,3.60
2023-03-10T01:43:50.809Z,3.60
2023-03-10T01:46:29.891Z,3.60
2023-03-10T01:49:00.789Z,3.70
2023-03-10T01:51:30.538Z,3.80
2023-03-10T01:53:57.445Z,3.70
2023-03-10T01:56:24.147Z,3.90
2023-03-10T01:58:51.092Z,3.70
2023-03-10T02:01:18.416Z,3.70
2023-03-10T02:03:53.289Z,3.60
2023-03-10T02:06:23.505Z,3.80
2023-03-10T02:08:54.721Z,3.60
2023-03-10T02:11:21.921Z,3.30
2023-03-10T02:13:48.887Z,3.30
2023-03-10T02:16:16.463Z,3.50
2023-03-10T02:18:45.604Z,3.30
2023-03-10T02:21:39.273Z,3.30
2023-03-10T02:24:19.397Z,3.40
2023-03-10T02:26:52.130Z,3.40
2023-03-10T02:29:26.423Z,3.30
2023-03-10T02:31:56.144Z,3.20
2023-03-10T02:34:25.299Z,3.20
2023-03-10T02:36:51.884Z,3.40
2023-03-10T02:39:18.637Z,3.40
2023-03-10T02:41:45.896Z,3.50
2023-03-10T02:44:16.559Z,3.30
2023-03-10T02:46:43.347Z,3.30
2023-03-10T02:49:10.845Z,3.20
2023-03-10T02:51:41.131Z,3.20
2023-03-10T02:54:09.100Z,3.20
2023-03-10T02:56:37.060Z,3.10
2023-03-10T02:59:05.773Z,3.00
2023-03-10T03:01:32.829Z,3.00
2023-03-10T03:04:00.592Z,2.90
2023-03-10T03:06:28.570Z,3.10
2023-03-10T03:08:55.574Z,2.90
2023-03-10T03:11:22.174Z,2.90
2023-03-10T03:13:48.806Z,2.90
2023-03-10T03:16:15.632Z,2.80
2023-03-10T03:18:42.302Z,2.90
2023-03-10T03:21:11.791Z,2.90
2023-03-10T03:23:39.190Z,2.80
2023-03-10T03:26:13.078Z,2.90
2023-03-10T03:28:39.656Z,3.00
2023-03-10T03:31:06.265Z,2.90
2023-03-10T03:33:32.933Z,2.90
2023-03-10T03:35:59.613Z,3.00
2023-03-10T03:38:26.245Z,3.10
2023-03-10T03:40:52.823Z,3.00
2023-03-10T03:43:19.435Z,3.10
2023-03-10T03:45:46.050Z,3.00
2023-03-10T03:48:14.425Z,2.90
2023-03-10T03:50:41.033Z,2.90
2023-03-10T03:53:07.773Z,2.90
2023-03-10T03:55:34.403Z,2.80
2023-03-10T03:58:01.100Z,2.80
2023-03-10T04:00:27.800Z,2.90
2023-03-10T04:02:54.387Z,2.90
2023-03-10T04:05:21.053Z,3.00
2023-03-10T04:07:49.758Z,2.90
2023-03-10T04:10:19.843Z,2.80
2023-03-10T04:12:46.925Z,2.80
2023-03-10T04:15:14.046Z,2.90
2023-03-10T04:17:40.889Z,2.80
2023-03-10T04:20:09.353Z,2.80
2023-03-10T04:22:36.792Z,2.80
2023-03-10T04:25:05.835Z,2.90
2023-03-10T04:27:32.989Z,2.80
2023-03-10T04:29:59.636Z,2.80
2023-03-10T04:32:26.746Z,2.90
2023-03-10T04:34:53.424Z,2.90
2023-03-10T04:37:21.730Z,3.00
2023-03-10T04:39:48.461Z,3.00
2023-03-10T04:42:15.129Z,2.80
2023-03-10T04:44:41.755Z,2.90
2023-03-10T04:47:08.430Z,2.70
2023-03-10T04:49:36.668Z,2.80
2023-03-10T04:52:03.294Z,2.80
2023-03-10T04:54:29.988Z,2.70
2023-03-10T04:56:56.724Z,4.70
2023-03-10T04:59:23.421Z,2.60
2023-03-10T05:01:52.257Z,2.50
2023-03-10T05:04:19.199Z,2.60
2023-03-10T05:06:49.123Z,2.70
2023-03-10T05:09:15.751Z,2.70
2023-03-10T05:11:42.335Z,2.60
2023-03-10T05:14:10.340Z,2.50
2023-03-10T05:16:36.927Z,2.60
2023-03-10T05:19:03.961Z,2.50
2023-03-10T05:21:30.572Z,2.60
2023-03-10T05:23:57.234Z,2.60
2023-03-10T05:26:23.851Z,2.50
2023-03-10T05:28:50.484Z,2.70
2023-03-10T05:31:17.845Z,2.50
2023-03-10T05:33:44.649Z,2.40
2023-03-10T05:36:13.030Z,2.50
2023-03-10T05:38:39.672Z,2.60
2023-03-10T05:41:08.527Z,2.50
2023-03-10T05:43:35.919Z,0.10
2023-03-10T05:46:02.830Z,2.30
2023-03-10T05:48:29.707Z,2.50
2023-03-10T05:51:01.406Z,3.50
2023-03-10T05:53:29.623Z,2.40
2023-03-10T05:55:56.697Z,2.50
2023-03-10T05:58:24.913Z,2.60
2023-03-10T06:00:51.777Z,2.50
2023-03-10T06:03:19.326Z,2.60
2023-03-10T06:05:46.118Z,2.70
2023-03-10T06:08:12.760Z,2.50
2023-03-10T06:10:39.477Z,2.50
2023-03-10T06:13:06.333Z,2.50
2023-03-10T06:15:33.319Z,2.50
2023-03-10T06:18:00.074Z,2.40
2023-03-10T06:20:26.765Z,2.50
2023-03-10T06:22:53.556Z,2.60
2023-03-10T06:25:20.827Z,2.50
2023-03-10T06:27:47.795Z,2.50
2023-03-10T06:30:15.601Z,2.50
2023-03-10T06:32:42.872Z,2.50
2023-03-10T06:35:13.391Z,2.50
2023-03-10T06:37:40.268Z,2.70
2023-03-10T06:40:08.283Z,2.80
2023-03-10T06:42:35.070Z,2.60
2023-03-10T06:45:01.775Z,2.70
2023-03-10T06:47:28.458Z,2.50
2023-03-10T06:49:55.262Z,2.70
2023-03-10T06:52:22.127Z,3.30
2023-03-10T06:54:48.744Z,3.40
2023-03-10T06:57:15.445Z,3.40
2023-03-10T06:59:42.249Z,3.00
2023-03-10T07:02:14.112Z,2.90
2023-03-10T07:04:41.367Z,2.70
2023-03-10T07:07:08.073Z,2.80
2023-03-10T07:09:34.764Z,3.00
2023-03-10T07:12:01.558Z,3.00
2023-03-10T07:14:28.156Z,2.80
2023-03-10T07:16:55.064Z,2.80
2023-03-10T07:19:21.926Z,2.90
2023-03-10T07:21:48.611Z,2.80
2023-03-10T07:24:16.342Z,2.60
2023-03-10T07:26:43.299Z,2.80
2023-03-10T07:29:10.487Z,2.80
2023-03-10T07:31:37.758Z,2.90
2023-03-10T07:34:04.401Z,2.80
2023-03-10T07:36:31.032Z,2.70
2023-03-10T07:38:57.627Z,2.90
2023-03-10T07:41:24.287Z,2.80
2023-03-10T07:43:54.963Z,2.90
2023-03-10T07:46:22.191Z,3.30
2023-03-10T07:48:49.052Z,2.90
2023-03-10T07:51:15.756Z,2.90
2023-03-10T07:53:42.504Z,3.10
2023-03-10T07:56:11.462Z,3.00
2023-03-10T07:58:38.603Z,2.90
2023-03-10T08:01:08.578Z,3.00
2023-03-10T08:03:35.859Z,3.00
2023-03-10T08:06:05.450Z,3.10
2023-03-10T08:08:32.229Z,3.10
2023-03-10T08:11:07.424Z,3.20
2023-03-10T08:13:34.192Z,3.10
2023-03-10T08:16:01.757Z,3.10
2023-03-10T08:18:29.666Z,3.20
2023-03-10T08:20:56.891Z,3.20
2023-03-10T08:23:24.941Z,2.90
2023-03-10T08:25:51.923Z,2.90
2023-03-10T08:28:18.661Z,3.00
2023-03-10T08:31:02.666Z,3.10
2023-03-10T08:33:30.635Z,3.10
2023-03-10T08:36:12.572Z,3.10
2023-03-10T08:38:39.747Z,3.10
2023-03-10T08:41:17.624Z,3.10
2023-03-10T08:43:46.592Z,4.10
2023-03-10T08:46:15.218Z,3.00
2023-03-10T08:48:43.029Z,3.00
2023-03-10T08:51:12.122Z,3.00
2023-03-10T08:53:41.052Z,3.60
2023-03-10T08:56:07.716Z,3.00
2023-03-10T08:58:34.374Z,3.20
2023-03-10T09:01:01.204Z,3.10
2023-03-10T09:03:30.300Z,3.10
2023-03-10T09:05:58.207Z,3.20
2023-03-10T09:08:27.402Z,3.20
2023-03-10T09:10:54.484Z,3.30
2023-03-10T09:13:21.388Z,3.40
2023-03-10T09:15:47.951Z,3.20
2023-03-10T09:18:15.860Z,3.20
2023-03-10T09:20:43.835Z,3.10
2023-03-10T09:23:16.727Z,3.30
2023-03-10T09:25:43.454Z,3.40
2023-03-10T09:28:11.509Z,3.40
2023-03-10T09:30:43.138Z,1.90
2023-03-10T09:33:19.476Z,3.30
2023-03-10T09:35:52.846Z,3.40
2023-03-10T09:38:25.382Z,3.40
2023-03-10T09:41:13.507Z,3.30
2023-03-10T09:43:50.347Z,3.20
2023-03-10T09:46:31.274Z,3.20
2023-03-10T09:49:14.212Z,3.20
2023-03-10T09:51:45.429Z,3.20
2023-03-10T09:54:26.769Z,3.30
2023-03-10T09:56:55.631Z,3.10
2023-03-10T09:59:30.201Z,3.10
2023-03-10T10:01:57.478Z,3.10
2023-03-10T10:04:40.016Z,3.10
2023-03-10T10:07:17.343Z,3.00
2023-03-10T10:09:53.082Z,3.10
2023-03-10T10:12:24.838Z,3.10
2023-03-10T10:15:17.832Z,3.00
2023-03-10T10:18:26.731Z,2.90
2023-03-10T10:21:00.228Z,3.10
2023-03-10T10:23:45.247Z,2.90
2023-03-10T10:26:19.104Z,2.90
2023-03-10T10:28:59.175Z,2.90
2023-03-10T10:31:33.367Z,3.00
2023-03-10T10:34:06.278Z,2.90
2023-03-10T10:36:46.730Z,3.00
2023-03-10T10:39:28.210Z,3.10
2023-03-10T10:41:56.111Z,3.10
2023-03-10T10:44:22.776Z,3.40
2023-03-10T10:46:55.612Z,3.20
2023-03-10T10:49:28.315Z,3.30
2023-03-10T10:52:06.711Z,3.20
2023-03-10T10:54:41.052Z,3.20
2023-03-10T10:57:38.676Z,3.40
2023-03-10T11:00:27.538Z,3.30
2023-03-10T11:02:54.925Z,4.30
2023-03-10T11:05:33.821Z,3.20
2023-03-10T11:08:34.789Z,3.20
2023-03-10T11:11:18.716Z,3.20
2023-03-10T11:14:27.401Z,3.30
2023-03-10T11:17:00.080Z,3.40
2023-03-10T11:20:05.940Z,3.40
2023-03-10T11:22:46.779Z,3.40
2023-03-10T11:25:38.261Z,3.60
2023-03-10T11:28:22.203Z,3.30
2023-03-10T11:30:58.648Z,2.30
2023-03-10T11:33:50.350Z,4.70
2023-03-10T11:36:30.921Z,4.80
2023-03-10T11:39:15.839Z,4.30
2023-03-10T11:41:49.020Z,4.00
2023-03-10T11:44:25.795Z,3.70
2023-03-10T11:47:02.864Z,3.60
2023-03-10T11:49:36.616Z,4.10
2023-03-10T11:52:18.557Z,3.50
2023-03-10T11:54:53.589Z,3.30
2023-03-10T11:57:24.741Z,3.30
2023-03-10T12:00:01.390Z,3.30
2023-03-10T12:02:39.717Z,3.30
2023-03-10T12:05:21.347Z,3.40
2023-03-10T12:07:51.642Z,3.50
2023-03-10T12:10:21.825Z,3.60
2023-03-10T12:12:50.351Z,3.70
2023-03-10T12:15:32.441Z,3.80
2023-03-10T12:17:59.216Z,3.60
2023-03-10T12:20:31.066Z,3.60
2023-03-10T12:23:11.651Z,3.50
2023-03-10T12:25:38.418Z,3.50
2023-03-10T12:28:17.403Z,3.80
2023-03-10T12:31:10.610Z,3.90
2023-03-10T12:33:47.364Z,3.80
2023-03-10T12:36:19.987Z,3.90
2023-03-10T12:38:59.556Z,3.90
2023-03-10T12:41:26.209Z,4.00
2023-03-10T12:43:54.662Z,4.00
2023-03-10T12:46:29.017Z,3.90
2023-03-10T12:49:34.903Z,4.00
2023-03-10T12:52:07.896Z,2.70
2023-03-10T12:55:01.538Z,3.60
2023-03-10T12:57:43.315Z,3.90
2023-03-10T13:00:18.796Z,3.60
2023-03-10T13:02:51.165Z,3.50
2023-03-10T13:05:29.451Z,3.70
2023-03-10T13:08:19.381Z,3.70
2023-03-10T13:10:46.572Z,3.70
2023-03-10T13:13:17.120Z,3.60
2023-03-10T13:15:43.817Z,3.60
2023-03-10T13:18:22.296Z,3.70
2023-03-10T13:20:49.817Z,3.70
2023-03-10T13:23:34.427Z,3.90
2023-03-10T13:26:09.466Z,3.80
2023-03-10T13:28:36.473Z,4.90
2023-03-10T13:31:12.365Z,3.90
2023-03-10T13:33:50.309Z,4.00
2023-03-10T13:36:28.005Z,4.10
2023-03-10T13:38:56.375Z,3.80
2023-03-10T13:41:23.562Z,3.90
2023-03-10T13:43:53.105Z,3.90
2023-03-10T13:46:33.581Z,4.00
2023-03-10T13:49:20.479Z,4.00
2023-03-10T13:52:01.761Z,4.20
2023-03-10T13:58:13.746Z,3.90
2023-03-10T14:04:53.481Z,4.00
2023-03-10T14:07:26.168Z,3.70
2023-03-10T14:10:04.758Z,3.70
2023-03-10T14:12:52.020Z,3.80
2023-03-10T14:15:30.831Z,4.90
2023-03-10T14:18:06.817Z,3.80
2023-03-10T14:20:39.212Z,3.80
2023-03-10T14:23:23.685Z,3.80
2023-03-10T14:25:52.797Z,3.60
2023-03-10T14:28:28.688Z,3.60
2023-03-10T14:30:55.736Z,3.60
2023-03-10T14:33:22.770Z,3.70
2023-03-10T14:35:52.518Z,5.30
2023-03-10T14:38:19.250Z,3.60
2023-03-10T14:40:48.425Z,3.50
2023-03-10T14:43:28.860Z,3.50
2023-03-10T14:45:58.483Z,3.60
2023-03-10T14:48:28.302Z,3.60
2023-03-10T14:50:56.827Z,3.50
2023-03-10T14:53:25.872Z,3.60
2023-03-10T14:55:55.689Z,3.50
2023-03-10T14:58:30.160Z,3.30
2023-03-10T15:00:56.928Z,3.40
2023-03-10T15:03:23.650Z,3.50
2023-03-10T15:05:50.758Z,3.60
2023-03-10T15:08:17.792Z,3.60
2023-03-10T15:10:48.327Z,3.50
2023-03-10T15:13:16.494Z,3.40
2023-03-10T15:15:44.917Z,3.40
2023-03-10T15:18:17.102Z,3.30
2023-03-10T15:20:43.782Z,3.30
2023-03-10T15:23:13.008Z,3.40
2023-03-10T15:25:41.988Z,3.50
2023-03-10T15:28:10.628Z,3.50
2023-03-10T15:30:37.526Z,3.60
2023-03-10T15:33:04.351Z,3.70
2023-03-10T15:35:31.723Z,3.60
2023-03-10T15:37:59.087Z,3.60
2023-03-10T15:40:28.837Z,3.50
2023-03-10T15:42:57.341Z,3.50
2023-03-10T15:45:29.765Z,3.70
2023-03-10T15:47:57.628Z,3.80
2023-03-10T15:50:24.450Z,3.60
2023-03-10T15:52:54.490Z,3.50
2023-03-10T15:55:21.273Z,3.60
2023-03-10T15:57:49.756Z,3.50
2023-03-10T16:00:18.363Z,3.60
2023-03-10T16:02:45.275Z,3.50
2023-03-10T16:05:12.190Z,3.30
2023-03-10T16:07:38.976Z,3.50
2023-03-10T16:10:06.188Z,3.40
2023-03-10T16:12:32.845Z,3.40
2023-03-10T16:14:59.443Z,3.30
2023-03-10T16:17:28.894Z,3.30
2023-03-10T16:19:55.616Z,3.30
2023-03-10T16:22:22.940Z,3.40
2023-03-10T16:24:49.538Z,3.30
2023-03-10T16:27:16.797Z,3.20
2023-03-10T16:29:43.474Z,3.30
2023-03-10T16:32:11.931Z,3.60
2023-03-10T16:34:38.607Z,3.70
2023-03-10T16:37:07.926Z,3.70
2023-03-10T16:39:35.117Z,3.60
2023-03-10T16:42:01.942Z,2.50
2023-03-10T16:44:28.548Z,3.60
2023-03-10T16:46:55.157Z,3.50
2023-03-10T16:49:22.351Z,3.50
2023-03-10T16:51:48.987Z,3.40
2023-03-10T16:54:18.206Z,3.40
2023-03-10T16:56:47.666Z,3.30
2023-03-10T16:59:20.551Z,3.30
2023-03-10T17:01:48.108Z,3.20
2023-03-10T17:04:14.937Z,3.20
2023-03-10T17:06:42.332Z,3.20
2023-03-10T17:09:10.825Z,3.30
2023-03-10T17:11:46.269Z,3.20
2023-03-10T17:14:15.460Z,3.30
2023-03-10T17:16:43.573Z,3.30
2023-03-10T17:19:16.656Z,3.30
2023-03-10T17:21:47.151Z,3.20
2023-03-10T17:24:16.014Z,3.10
2023-03-10T17:26:42.732Z,3.20
2023-03-10T17:29:09.486Z,3.30
2023-03-10T17:31:37.162Z,3.40
2023-03-10T17:34:07.201Z,3.40
2023-03-10T17:36:34.341Z,3.40
2023-03-10T17:39:02.721Z,4.90
2023-03-10T17:41:32.573Z,3.20
2023-03-10T17:43:59.437Z,3.20
2023-03-10T17:46:28.365Z,1.70
2023-03-10T17:48:55.769Z,3.20
2023-03-10T17:51:28.164Z,3.30
2023-03-10T17:53:57.495Z,3.20
2023-03-10T17:56:24.701Z,3.00
2023-03-10T17:58:54.832Z,3.10
2023-03-10T18:01:27.035Z,2.10
2023-03-10T18:03:58.292Z,2.80
2023-03-10T18:06:29.326Z,2.80
2023-03-10T18:08:57.659Z,2.90
2023-03-10T18:11:26.350Z,2.80
2023-03-10T18:13:53.204Z,2.80
2023-03-10T18:16:25.683Z,2.70
2023-03-10T18:18:53.008Z,2.80
2023-03-10T18:21:20.936Z,2.80
2023-03-10T18:23:48.682Z,2.90
2023-03-10T18:26:18.968Z,2.90
2023-03-10T18:28:46.202Z,2.80
2023-03-10T18:31:25.129Z,4.60
2023-03-10T18:33:52.151Z,2.90
2023-03-10T18:36:20.484Z,3.00
2023-03-10T18:38:48.145Z,3.00
2023-03-10T18:41:18.703Z,3.00
2023-03-10T18:43:45.508Z,2.90
2023-03-10T18:46:12.165Z,3.80
2023-03-10T18:48:38.913Z,3.00
2023-03-10T18:51:05.904Z,2.90
2023-03-10T18:53:32.554Z,2.90
2023-03-10T18:56:00.092Z,3.00
2023-03-10T18:58:26.884Z,2.90
2023-03-10T19:00:53.752Z,4.30
2023-03-10T19:03:20.572Z,3.10
2023-03-10T19:05:53.486Z,3.20
2023-03-10T19:08:22.199Z,3.20
2023-03-10T19:10:59.298Z,3.20
2023-03-10T19:13:28.050Z,3.30
2023-03-10T19:15:54.780Z,3.30
2023-03-10T19:18:21.781Z,3.10
2023-03-10T19:20:48.414Z,3.20
2023-03-10T19:23:15.343Z,3.20
2023-03-10T19:25:42.054Z,3.20
2023-03-10T19:28:08.712Z,3.00
2023-03-10T19:30:35.705Z,3.00
2023-03-10T19:33:02.343Z,3.10
2023-03-10T19:35:29.060Z,3.00
2023-03-10T19:37:55.686Z,1.80
2023-03-10T19:40:23.919Z,2.90
2023-03-10T19:42:50.649Z,2.90
2023-03-10T19:45:18.703Z,2.90
2023-03-10T19:47:46.090Z,2.90
2023-03-10T19:50:16.040Z,2.90
2023-03-10T19:52:47.192Z,2.80
2023-03-10T19:55:19.423Z,2.80
2023-03-10T19:57:48.204Z,2.70
2023-03-10T20:00:17.247Z,2.70
2023-03-10T20:02:44.812Z,2.80
2023-03-10T20:05:14.402Z,2.70
2023-03-10T20:07:42.558Z,2.50
2023-03-10T20:10:09.901Z,2.50
2023-03-10T20:12:36.990Z,2.50
2023-03-10T20:15:04.943Z,2.40
2023-03-10T20:17:31.626Z,2.20
2023-03-10T20:19:58.250Z,2.20
2023-03-10T20:22:24.938Z,2.20
2023-03-10T20:24:51.544Z,2.20
2023-03-10T20:27:18.162Z,2.20
2023-03-10T20:29:44.818Z,2.20
2023-03-10T20:32:11.477Z,2.20
2023-03-10T20:34:41.115Z,2.10
2023-03-10T20:37:07.987Z,2.10
2023-03-10T20:39:34.886Z,2.10
2023-03-10T20:42:01.570Z,2.20
2023-03-10T20:44:28.211Z,2.20
2023-03-10T20:46:54.890Z,2.30
2023-03-10T20:49:21.588Z,2.40
2023-03-10T20:51:48.323Z,2.20
2023-03-10T20:54:15.024Z,2.20
2023-03-10T20:56:41.753Z,2.10
2023-03-10T20:59:08.401Z,2.00
2023-03-10T21:01:39.607Z,2.10
2023-03-10T21:04:06.453Z,2.20
2023-03-10T21:06:33.157Z,2.10
2023-03-10T21:09:05.855Z,2.10
2023-03-10T21:11:33.884Z,2.10
2023-03-10T21:14:00.653Z,2.00
2023-03-10T21:16:27.924Z,2.00
2023-03-10T21:18:54.618Z,2.30
2023-03-10T21:21:21.836Z,2.00
2023-03-10T21:23:48.620Z,2.00
2023-03-10T21:26:20.503Z,2.10
2023-03-10T21:28:47.517Z,2.00
2023-03-10T21:31:15.078Z,2.00
2023-03-10T21:33:42.048Z,2.00
2023-03-10T21:36:15.816Z,2.00
2023-03-10T21:38:43.095Z,2.00
2023-03-10T21:41:10.950Z,2.10
2023-03-10T21:43:37.599Z,2.20
2023-03-10T21:46:04.449Z,2.00
2023-03-10T21:48:31.078Z,1.90
2023-03-10T21:50:57.784Z,1.90
2023-03-10T21:53:26.602Z,1.90
2023-03-10T21:55:54.192Z,1.90
2023-03-10T21:58:23.358Z,1.90
2023-03-10T22:00:50.432Z,2.00
2023-03-10T22:03:17.493Z,2.00
2023-03-10T22:05:44.372Z,1.70
2023-03-10T22:08:11.069Z,2.00
2023-03-10T22:10:37.705Z,2.00
2023-03-10T22:13:04.536Z,2.00
2023-03-10T22:15:31.225Z,2.10
2023-03-10T22:17:58.119Z,2.10
2023-03-10T22:20:27.113Z,1.90
2023-03-10T22:22:53.835Z,2.00
2023-03-10T22:25:20.752Z,2.10
2023-03-10T22:27:54.032Z,1.90
2023-03-10T22:30:22.351Z,1.90
2023-03-10T22:32:49.473Z,1.90
2023-03-10T22:35:17.112Z,2.00
2023-03-10T22:37:43.773Z,2.00
2023-03-10T22:40:16.154Z,2.00
2023-03-10T22:42:43.837Z,2.00
2023-03-10T22:45:21.590Z,1.90
2023-03-10T22:47:49.424Z,1.90
2023-03-10T22:50:19.228Z,1.80
2023-03-10T22:52:46.090Z,0.10
2023-03-10T22:55:15.255Z,2.00
2023-03-10T22:57:42.839Z,1.90
2023-03-10T23:00:14.068Z,2.00
2023-03-10T23:02:41.389Z,2.00
2023-03-10T23:05:08.732Z,1.90
2023-03-10T23:07:35.469Z,2.00
2023-03-10T23:10:05.819Z,2.00
2023-03-10T23:12:32.936Z,2.00
2023-03-10T23:14:59.970Z,2.00
2023-03-10T23:17:26.588Z,2.00
2023-03-10T23:19:55.959Z,2.10
2023-03-10T23:22:26.534Z,1.90
2023-03-10T23:24:53.178Z,1.90
2023-03-10T23:27:19.830Z,2.00
2023-03-10T23:29:46.571Z,2.00
2023-03-10T23:32:13.212Z,2.10
2023-03-10T23:34:39.848Z,2.10
2023-03-10T23:37:06.439Z,2.10
2023-03-10T23:39:33.055Z,3.80
2023-03-10T23:41:59.776Z,2.20
2023-03-10T23:44:26.426Z,2.20
2023-03-10T23:46:53.883Z,2.20
2023-03-10T23:49:22.109Z,2.20
2023-03-10T23:51:51.293Z,2.40
2023-03-10T23:54:22.224Z,2.20
2023-03-10T23:56:50.991Z,2.10
2023-03-10T23:59:17.657Z,2.10
